Map

Track Data

SID SEASON NUMBER BASIN SUBBASIN NAME ISO_TIME NATURE LAT LON WMO_WIND WMO_PRES WMO_AGENCY TRACK_TYPE DIST2LAND LANDFALL IFLAG USA_AGENCY USA_ATCF_ID USA_LAT USA_LON USA_RECORD USA_STATUS USA_WIND USA_PRES USA_SSHS USA_R34_NE USA_R34_SE USA_R34_SW USA_R34_NW USA_R50_NE USA_R50_SE USA_R50_SW USA_R50_NW USA_R64_NE USA_R64_SE USA_R64_SW USA_R64_NW USA_POCI USA_ROCI USA_RMW USA_EYE TOKYO_LAT TOKYO_LON TOKYO_GRADE TOKYO_WIND TOKYO_PRES TOKYO_R50_DIR TOKYO_R50_LONG TOKYO_R50_SHORT TOKYO_R30_DIR TOKYO_R30_LONG TOKYO_R30_SHORT TOKYO_LAND CMA_LAT CMA_LON CMA_CAT CMA_WIND CMA_PRES HKO_LAT HKO_LON HKO_CAT HKO_WIND HKO_PRES NEWDELHI_LAT NEWDELHI_LON NEWDELHI_GRADE NEWDELHI_WIND NEWDELHI_PRES NEWDELHI_CI NEWDELHI_DP NEWDELHI_POCI REUNION_LAT REUNION_LON REUNION_TYPE REUNION_WIND REUNION_PRES REUNION_TNUM REUNION_CI REUNION_RMW REUNION_R34_NE REUNION_R34_SE REUNION_R34_SW REUNION_R34_NW REUNION_R50_NE REUNION_R50_SE REUNION_R50_SW REUNION_R50_NW REUNION_R64_NE REUNION_R64_SE REUNION_R64_SW REUNION_R64_NW BOM_LAT BOM_LON BOM_TYPE BOM_WIND BOM_PRES BOM_TNUM BOM_CI BOM_RMW BOM_R34_NE BOM_R34_SE BOM_R34_SW BOM_R34_NW BOM_R50_NE BOM_R50_SE BOM_R50_SW BOM_R50_NW BOM_R64_NE BOM_R64_SE BOM_R64_SW BOM_R64_NW BOM_ROCI BOM_POCI BOM_EYE BOM_POS_METHOD BOM_PRES_METHOD NADI_LAT NADI_LON NADI_CAT NADI_WIND NADI_PRES WELLINGTON_LAT WELLINGTON_LON WELLINGTON_WIND WELLINGTON_PRES DS824_LAT DS824_LON DS824_STAGE DS824_WIND DS824_PRES TD9636_LAT TD9636_LON TD9636_STAGE TD9636_WIND TD9636_PRES TD9635_LAT TD9635_LON TD9635_WIND TD9635_PRES TD9635_ROCI NEUMANN_LAT NEUMANN_LON NEUMANN_CLASS NEUMANN_WIND NEUMANN_PRES MLC_LAT MLC_LON MLC_CLASS MLC_WIND MLC_PRES USA_GUST BOM_GUST BOM_GUST_PER REUNION_GUST REUNION_GUST_PER USA_SEAHGT USA_SEARAD_NE USA_SEARAD_SE USA_SEARAD_SW USA_SEARAD_NW STORM_SPEED STORM_DIR
1942038S15157 1942 6 SP EA NOT_NAMED 1942-02-06 23:00:00 NR -15.0500 157.100 1000 bom main 651 661 ______O___O___ -1 -15.0000 157.000 1000 -15.1000 157.200 7 8 221
1942038S15157 1942 6 SP EA NOT_NAMED 1942-02-07 00:00:00 TS -15.1487 157.009 main 666 666 ______P__OP___ -1 -15.0873 156.960 -15.1000 156.900 TC 30 1000 -15.2346 157.113 7 8 214
1942038S15157 1942 6 SP EA NOT_NAMED 1942-02-07 03:00:00 TS -15.4857 156.793 main 716 716 ______P__PP___ -1 -15.3521 156.834 -15.4635 156.641 TC -15.6341 156.853 7 8 212
1942038S15157 1942 6 SP EA NOT_NAMED 1942-02-07 06:00:00 TS -15.8245 156.573 main 756 756 ______P__PP___ -1 -15.6280 156.693 -15.8268 156.381 TC -16.0192 156.598 7 8 213
1942038S15157 1942 6 SP EA NOT_NAMED 1942-02-07 09:00:00 TS -16.1641 156.332 main 810 810 ______P__PP___ -1 -15.9232 156.523 -16.1899 156.120 TC -16.3792 156.354 7 8 214
1942038S15157 1942 6 SP EA NOT_NAMED 1942-02-07 11:00:00 TS -16.3889 156.178 main 835 835 ______P__PO___ -1 -16.1349 156.389 -16.4318 155.945 TC -16.6000 156.200 7 8 213
1942038S15157 1942 6 SP EA NOT_NAMED 1942-02-07 12:00:00 TS -16.5009 156.099 main 850 829 ______P__PP___ -1 -16.2461 156.314 -16.5527 155.858 TC -16.7038 156.126 7 8 215
1942038S15157 1942 6 SP EA NOT_NAMED 1942-02-07 15:00:00 TS -16.8399 155.850 main 829 775 ______P__PP___ -1 -16.6050 156.052 -16.9152 155.595 TC -16.9994 155.904 7 9 216
1942038S15157 1942 6 SP EA NOT_NAMED 1942-02-07 18:00:00 TS -17.1947 155.571 main 775 720 ______P__PP___ -1 -17.0080 155.724 -17.2772 155.331 TC -17.2988 155.658 7 9 217
1942038S15157 1942 6 SP EA NOT_NAMED 1942-02-07 21:00:00 TS -17.5742 155.262 main 720 682 ______P__PP___ -1 -17.4634 155.320 -17.6389 155.066 TC -17.6365 155.353 7 10 219
1942038S15157 1942 6 SP EA NOT_NAMED 1942-02-07 23:00:00 TS -17.8559 155.018 999 bom main 674 658 ______O__PO___ -1 -17.8000 155.000 999 4 -17.8797 154.889 TC -17.9000 155.100 7 11 219
1942038S15157 1942 6 SP EA NOT_NAMED 1942-02-08 00:00:00 TS -18.0125 154.884 main 658 581 ______P__OP___ -1 -17.9789 154.824 -18.0000 154.800 TC 30 999 -18.0493 154.964 7 14 222
1942038S15157 1942 6 SP EA NOT_NAMED 1942-02-08 03:00:00 NR -18.5485 154.366 main 581 489 ______P___P___ -1 -18.5521 154.235 TC -18.5450 154.497 7 16 224
1942038S15157 1942 6 SP EA NOT_NAMED 1942-02-08 06:00:00 NR -19.1318 153.753 main 489 391 ______P___P___ -1 -19.1652 153.567 TC -19.0984 153.939 7 17 226
1942038S15157 1942 6 SP EA NOT_NAMED 1942-02-08 09:00:00 NR -19.7454 153.062 main 391 323 ______P___P___ -1 -19.7992 152.837 TC -19.6915 153.287 7 18 227
1942038S15157 1942 6 SP EA NOT_NAMED 1942-02-08 11:00:00 NR -20.1620 152.562 main 315 287 ______P___O___ -1 -20.2241 152.324 TC -20.1000 152.800 7 19 229
1942038S15157 1942 6 SP EA NOT_NAMED 1942-02-08 12:00:00 NR -20.3707 152.301 main 278 177 ______P___P___ -1 -20.4351 152.061 TC -20.3062 152.540 7 20 231
1942038S15157 1942 6 SP EA NOT_NAMED 1942-02-08 15:00:00 NR -20.9919 151.480 main 177 89 ______P___P___ -1 -21.0543 151.256 TC -20.9296 151.705 7 20 232
1942038S15157 1942 6 SP EA NOT_NAMED 1942-02-08 18:00:00 NR -21.5977 150.620 main 89 24 ______P___P___ -1 -21.6386 150.441 TC -21.5569 150.800 7 20 233
1942038S15157 1942 6 SP EA NOT_NAMED 1942-02-08 20:00:00 NR -21.9876 150.035 bom main 22 15 ______O___P___ -1 -22.0000 149.900 TC -21.9752 150.170 7 20 235
1942038S15157 1942 6 SP EA NOT_NAMED 1942-02-08 21:00:00 NR -22.1774 149.741 main 15 0 ______P___P___ -1 -22.1708 149.632 TC -22.1840 149.849 7 20 236
1942038S15157 1942 6 SP EA NOT_NAMED 1942-02-08 23:00:00 NR -22.5500 149.150 1000 bom main 0 ______O___O___ -1 -22.5000 149.100 1000 TC -22.6000 149.200 7 20 236

Digital Typhoon Data and Search

About IBTrACS Database

This database is a web-friendly format of International Best Track Archive for Climate Stewardship (IBTrACS), a global best track data archive curated by NOAA dating back to 1842.

Updated: 2021-12-03